.
WxDataArchive / Data Records for 2014-03-22
2014-03-21 March 2014 2014-03-23

Data Records for Saturday, 22 March 2014

Time	Temp	Chill	HIndex	Humid	Dewpt	 Wind 	HiWind	WindDir	Rain 	Barom
-----	----	-----	------	-----	-----	------	------	-------	-----	-----
00:00	45.2	45.2	45.2	78	38.8	0	1	90	0.00	29.679 
00:05	46.1	46.1	46.1	73	37.9	0	1	90	0.00	29.679 
00:10	47.3	47.3	47.3	67	36.9	0	2	90	0.00	29.679 
00:15	49.2	49.2	49.2	60	35.9	1	5	270	0.00	29.670 
00:20	50.8	50.8	50.8	56	35.7	1	4	248	0.00	29.670 
00:25	52.3	52.3	52.3	52	35.2	2	6	248	0.00	29.670 
00:30	53.5	53.5	53.5	49	34.8	2	5	248	0.00	29.673 
00:35	54.2	54.2	54.2	47	34.4	2	7	248	0.00	29.673 
00:40	55.0	55.0	55.0	46	34.6	2	4	270	0.00	29.673 
00:45	55.4	55.4	55.4	45	34.4	2	6	270	0.00	29.682 
00:50	55.4	55.4	55.4	45	34.4	2	5	270	0.00	29.682 
00:55	55.7	55.7	55.7	46	35.2	3	6	270	0.00	29.682 
01:00	55.6	55.6	55.6	47	35.7	3	5	270	0.00	29.694 
01:05	54.8	54.8	54.8	51	37.0	6	13	292	0.00	29.694 
01:10	52.3	52.3	52.3	60	38.8	4	10	338	0.00	29.694 
01:15	49.9	47.5	49.9	65	38.6	6	13	338	0.00	29.726 
01:20	48.8	47.5	48.8	69	39.1	4	10	338	0.00	29.726 
01:25	48.2	46.8	48.2	71	39.2	4	11	338	0.00	29.726 
01:30	47.7	46.2	47.7	72	39.1	4	9	338	0.00	29.732 
01:35	47.3	45.8	47.3	73	39.1	4	9	292	0.00	29.732 
01:40	47.0	47.0	47.0	73	38.8	2	6	292	0.00	29.732 
01:45	46.8	46.8	46.8	74	39.0	3	7	338	0.00	29.734 
01:50	46.7	46.7	46.7	75	39.2	3	9	315	0.00	29.734 
01:55	46.4	46.4	46.4	76	39.3	2	6	270	0.00	29.734 
02:00	46.2	46.2	46.2	77	39.4	1	3	292	0.00	29.733 
02:05	46.0	46.0	46.0	78	39.5	1	2	292	0.00	29.733 
02:10	45.8	45.8	45.8	79	39.7	1	2	292	0.00	29.733 
02:15	45.7	45.7	45.7	80	39.9	1	3	270	0.00	29.745 
02:20	45.5	45.5	45.5	80	39.7	1	3	270	0.00	29.745 
02:25	45.5	45.5	45.5	80	39.7	2	5	292	0.00	29.745 
02:30	45.5	45.5	45.5	80	39.7	1	4	270	0.00	29.757 
02:35	45.4	45.4	45.4	81	39.9	3	6	270	0.00	29.757 
02:40	45.4	45.4	45.4	81	39.9	3	7	270	0.00	29.757 
02:45	45.2	45.2	45.2	80	39.4	3	6	270	0.00	29.763 
02:50	45.2	45.2	45.2	80	39.4	3	7	270	0.00	29.763 
02:55	45.1	43.2	45.1	80	39.3	4	6	248	0.00	29.763 
03:00	44.9	44.9	44.9	80	39.1	2	4	292	0.00	29.769 
03:05	44.8	44.8	44.8	79	38.7	3	6	270	0.00	29.769 
03:10	44.5	44.5	44.5	79	38.4	3	7	270	0.00	29.769 
03:15	44.3	44.3	44.3	78	37.9	3	6	270	0.00	29.776 
03:20	44.2	44.2	44.2	78	37.8	3	7	270	0.00	29.776 
03:25	43.9	43.9	43.9	78	37.5	2	3	292	0.00	29.776 
03:30	43.6	43.6	43.6	78	37.2	3	6	270	0.00	29.780 
03:35	43.5	43.5	43.5	78	37.1	2	5	270	0.00	29.780 
03:40	43.3	43.3	43.3	77	36.6	3	5	270	0.00	29.780 
03:45	43.1	43.1	43.1	77	36.4	3	7	270	0.00	29.794 
03:50	42.9	42.9	42.9	76	35.9	3	9	270	0.00	29.794 
03:55	42.8	42.8	42.8	75	35.4	3	6	270	0.00	29.794 
04:00	42.6	42.6	42.6	75	35.2	3	9	270	0.00	29.808 
04:05	42.3	42.3	42.3	74	34.6	3	10	292	0.00	29.808 
04:10	42.2	42.2	42.2	74	34.5	3	6	292	0.00	29.808 
04:15	41.9	39.5	41.9	74	34.2	4	9	270	0.00	29.815 
04:20	41.8	41.8	41.8	74	34.1	3	8	338	0.00	29.815 
04:25	41.5	41.5	41.5	74	33.8	3	11	292	0.00	29.815 
04:30	41.2	41.2	41.2	74	33.6	3	9	292	0.00	29.828 
04:35	40.9	40.9	40.9	74	33.3	3	9	292	0.00	29.828 
04:40	40.8	40.8	40.8	74	33.2	3	11	270	0.00	29.828 
04:45	40.6	40.6	40.6	74	33.0	3	7	270	0.00	29.842 
04:50	40.3	37.7	40.3	74	32.7	4	9	338	0.00	29.842 
04:55	40.2	40.2	40.2	74	32.6	3	6	292	0.00	29.842 
05:00	40.1	40.1	40.1	75	32.8	3	6	292	0.00	29.844 
05:05	39.9	39.9	39.9	75	32.6	2	7	270	0.00	29.844 
05:10	39.8	39.8	39.8	76	32.9	3	7	315	0.00	29.844 
05:15	39.6	36.9	39.6	76	32.7	4	13	270	0.00	29.857 
05:20	39.6	36.0	39.6	76	32.7	5	10	315	0.00	29.857 
05:25	39.6	36.0	39.6	76	32.7	5	11	315	0.00	29.857 
05:30	39.6	39.6	39.6	77	33.0	2	6	270	0.00	29.867 
05:35	39.6	39.6	39.6	77	33.0	3	8	292	0.00	29.867 
05:40	39.6	36.9	39.6	77	33.0	4	10	292	0.00	29.867 
05:45	39.8	37.1	39.8	77	33.2	4	10	292	0.00	29.876 
05:50	39.6	39.6	39.6	77	33.0	3	9	270	0.00	29.876 
05:55	39.6	39.6	39.6	77	33.0	2	6	292	0.00	29.876 
06:00	39.5	39.5	39.5	77	32.9	2	7	292	0.00	29.889 
06:05	39.6	39.6	39.6	77	33.0	3	7	315	0.00	29.889 
06:10	39.6	39.6	39.6	77	33.0	3	5	270	0.00	29.889 
06:15	39.6	39.6	39.6	77	33.0	3	9	270	0.00	29.898 
06:20	39.6	39.6	39.6	77	33.0	2	7	292	0.00	29.898 
06:25	39.5	39.5	39.5	77	32.9	3	8	270	0.00	29.898 
06:30	39.5	39.5	39.5	77	32.9	3	6	292	0.00	29.911 
06:35	39.3	39.3	39.3	77	32.7	2	6	338	0.00	29.911 
06:40	39.3	39.3	39.3	77	32.7	3	5	315	0.00	29.911 
06:45	39.2	39.2	39.2	78	32.9	2	6	270	0.00	29.924 
06:50	39.1	39.1	39.1	78	32.8	2	6	338	0.00	29.924 
06:55	38.9	38.9	38.9	77	32.3	2	5	270	0.00	29.924 
07:00	38.9	38.9	38.9	77	32.3	2	5	315	0.00	29.932 
07:05	38.8	38.8	38.8	77	32.2	1	3	292	0.00	29.932 
07:10	38.8	38.8	38.8	77	32.2	2	5	248	0.00	29.932 
07:15	38.8	38.8	38.8	77	32.2	1	3	270	0.00	29.945 
07:20	38.8	38.8	38.8	77	32.2	1	5	270	0.00	29.945 
07:25	38.6	38.6	38.6	77	32.0	3	9	292	0.00	29.945 
07:30	38.6	38.6	38.6	77	32.0	2	5	315	0.00	29.956 
07:35	38.5	38.5	38.5	77	31.9	2	6	270	0.00	29.956 
07:40	38.3	38.3	38.3	76	31.4	3	9	338	0.00	29.956 
07:45	38.2	38.2	38.2	76	31.3	3	7	338	0.00	29.969 
07:50	38.0	38.0	38.0	76	31.1	2	6	338	0.00	29.969 
07:55	37.9	37.9	37.9	76	31.0	2	5	292	0.00	29.969 
08:00	37.8	37.8	37.8	76	30.9	3	6	292	0.00	29.982 
08:05	37.6	37.6	37.6	76	30.7	3	8	292	0.00	29.982 
08:10	37.6	37.6	37.6	77	31.1	1	4	338	0.00	29.982 
08:15	37.6	37.6	37.6	77	31.1	2	6	292	0.00	29.989 
08:20	37.5	37.5	37.5	77	31.0	1	4	315	0.00	29.989 
08:25	37.3	37.3	37.3	76	30.4	2	6	315	0.00	29.989 
08:30	37.3	37.3	37.3	76	30.4	2	6	338	0.00	30.002 
08:35	37.3	37.3	37.3	76	30.4	1	3	270	0.00	30.002 
08:40	37.3	37.3	37.3	75	30.1	1	4	270	0.00	30.002 
08:45	37.3	37.3	37.3	75	30.1	1	4	338	0.00	30.007 
08:50	37.2	37.2	37.2	74	29.7	3	7	292	0.00	30.007 
08:55	37.2	37.2	37.2	73	29.4	2	7	0	0.00	30.007 
09:00	37.2	37.2	37.2	73	29.4	1	3	338	0.00	30.016 
09:05	37.2	37.2	37.2	73	29.4	1	3	292	0.00	30.016 
09:10	37.2	37.2	37.2	73	29.4	1	5	292	0.00	30.016 
09:15	37.2	37.2	37.2	72	29.0	1	6	315	0.00	30.023 
09:20	37.0	37.0	37.0	72	28.8	2	7	292	0.00	30.023 
09:25	37.0	37.0	37.0	72	28.8	3	6	292	0.00	30.023 
09:30	36.9	36.9	36.9	72	28.7	2	4	292	0.00	30.035 
09:35	36.9	36.9	36.9	72	28.7	2	5	338	0.00	30.035 
09:40	36.8	36.8	36.8	72	28.6	2	6	270	0.00	30.035 
09:45	36.8	36.8	36.8	72	28.6	1	4	315	0.00	30.045 
09:50	36.8	36.8	36.8	72	28.6	1	4	338	0.00	30.045 
09:55	36.8	36.8	36.8	72	28.6	1	4	338	0.00	30.045 
10:00	36.8	36.8	36.8	73	29.0	1	2	292	0.00	30.055 
10:05	36.9	36.9	36.9	73	29.1	1	4	292	0.00	30.055 
10:10	36.9	36.9	36.9	73	29.1	1	4	292	0.00	30.055 
10:15	36.9	36.9	36.9	73	29.1	1	3	292	0.00	30.065 
10:20	36.9	36.9	36.9	72	28.7	1	4	248	0.00	30.065 
10:25	37.0	37.0	37.0	72	28.8	1	3	338	0.00	30.065 
10:30	37.0	37.0	37.0	71	28.5	2	5	315	0.00	30.072 
10:35	37.0	37.0	37.0	71	28.5	2	7	315	0.00	30.072 
10:40	37.0	37.0	37.0	71	28.5	2	5	270	0.00	30.072 
10:45	37.0	37.0	37.0	71	28.5	2	5	315	0.00	30.084 
10:50	37.0	37.0	37.0	72	28.8	1	4	315	0.00	30.084 
10:55	36.9	36.9	36.9	72	28.7	2	5	338	0.00	30.084 
11:00	36.9	36.9	36.9	72	28.7	2	5	315	0.00	30.087 
11:05	37.0	37.0	37.0	72	28.8	2	4	0	0.00	30.087 
11:10	36.9	36.9	36.9	72	28.7	2	5	270	0.00	30.087 
11:15	37.0	37.0	37.0	72	28.8	1	4	270	0.00	30.092 
11:20	37.3	37.3	37.3	72	29.1	1	3	0	0.00	30.092 
11:25	37.3	37.3	37.3	71	28.8	2	5	0	0.00	30.092 
11:30	37.5	37.5	37.5	71	29.0	1	6	270	0.00	30.097 
11:35	37.6	37.6	37.6	70	28.7	1	4	292	0.00	30.097 
11:40	37.6	37.6	37.6	70	28.7	2	5	292	0.00	30.097 
11:45	37.5	37.5	37.5	70	28.6	2	7	292	0.00	30.101 
11:50	37.5	37.5	37.5	70	28.6	2	5	270	0.00	30.101 
11:55	37.6	37.6	37.6	70	28.7	2	5	338	0.00	30.101 
12:00	37.6	37.6	37.6	70	28.7	1	5	270	0.00	30.101 
12:05	37.8	37.8	37.8	71	29.3	1	4	315	0.00	30.101 
12:10	37.9	37.9	37.9	70	29.0	2	4	270	0.00	30.101 
12:15	37.8	37.8	37.8	70	28.9	1	4	292	0.00	30.093 
12:20	37.9	37.9	37.9	71	29.4	1	4	315	0.00	30.093 
12:25	37.9	37.9	37.9	71	29.4	2	5	315	0.00	30.093 
12:30	37.6	37.6	37.6	72	29.4	2	6	292	0.00	30.097 
12:35	37.5	37.5	37.5	72	29.3	2	5	248	0.00	30.097 
12:40	37.6	37.6	37.6	72	29.4	2	5	292	0.00	30.097 
12:45	37.9	37.9	37.9	72	29.7	2	6	315	0.00	30.101 
12:50	38.0	38.0	38.0	71	29.4	1	3	338	0.00	30.101 
12:55	38.0	38.0	38.0	70	29.1	2	6	315	0.00	30.101 
13:00	38.2	38.2	38.2	69	28.9	2	9	315	0.00	30.106 
13:05	38.0	38.0	38.0	69	28.7	2	7	315	0.00	30.106 
13:10	38.3	38.3	38.3	70	29.4	1	5	292	0.00	30.106 
13:15	38.2	38.2	38.2	69	28.9	2	5	315	0.00	30.115 
13:20	38.0	38.0	38.0	69	28.7	3	5	315	0.00	30.115 
13:25	37.9	37.9	37.9	70	29.0	1	5	270	0.00	30.115 
13:30	37.9	37.9	37.9	68	28.3	2	6	270	0.00	30.120 
13:35	37.9	37.9	37.9	66	27.6	2	6	315	0.00	30.120 
13:40	37.9	37.9	37.9	67	27.9	1	4	292	0.00	30.120 
13:45	38.2	38.2	38.2	66	27.9	2	6	292	0.00	30.121 
13:50	38.5	38.5	38.5	64	27.4	2	5	292	0.00	30.121 
13:55	38.5	38.5	38.5	63	27.0	2	5	292	0.00	30.121 
14:00	38.5	38.5	38.5	62	26.6	3	5	292	0.00	30.126 
14:05	38.6	38.6	38.6	62	26.7	2	4	270	0.00	30.126 
14:10	38.8	38.8	38.8	63	27.3	1	3	270	0.00	30.126 
14:15	38.8	38.8	38.8	63	27.3	2	4	315	0.00	30.126 
14:20	38.6	38.6	38.6	63	27.1	2	4	338	0.00	30.126 
14:25	38.5	38.5	38.5	64	27.4	2	4	270	0.00	30.126 
14:30	38.5	38.5	38.5	64	27.4	1	5	292	0.00	30.124 
14:35	38.5	38.5	38.5	63	27.0	2	4	270	0.00	30.124 
14:40	38.5	38.5	38.5	64	27.4	1	4	270	0.00	30.124 
14:45	38.3	38.3	38.3	64	27.2	1	5	338	0.00	30.125 
14:50	38.3	38.3	38.3	64	27.2	2	5	270	0.00	30.125 
14:55	38.3	38.3	38.3	65	27.6	1	4	338	0.00	30.125 
15:00	38.6	38.6	38.6	66	28.2	1	5	338	0.00	30.118 
15:05	38.8	38.8	38.8	65	28.1	1	3	270	0.00	30.118 
15:10	38.9	38.9	38.9	64	27.8	1	2	270	0.00	30.118 
15:15	39.2	39.2	39.2	62	27.3	2	6	270	0.00	30.120 
15:20	39.3	39.3	39.3	61	27.0	2	5	315	0.00	30.120 
15:25	39.5	39.5	39.5	60	26.8	2	4	315	0.00	30.120 
15:30	39.6	39.6	39.6	59	26.5	2	4	292	0.00	30.122 
15:35	39.8	39.8	39.8	59	26.7	1	4	315	0.00	30.122 
15:40	39.8	39.8	39.8	59	26.7	1	3	315	0.00	30.122 
15:45	39.6	39.6	39.6	59	26.5	1	4	22	0.00	30.119 
15:50	39.8	39.8	39.8	59	26.7	2	4	0	0.00	30.119 
15:55	39.6	39.6	39.6	59	26.5	2	4	248	0.00	30.119 
16:00	39.9	39.9	39.9	59	26.7	1	3	270	0.00	30.118 
16:05	40.1	40.1	40.1	58	26.5	2	4	270	0.00	30.118 
16:10	40.3	40.3	40.3	58	26.7	1	4	292	0.00	30.118 
16:15	40.6	40.6	40.6	58	27.0	2	4	315	0.00	30.117 
16:20	40.8	40.8	40.8	55	25.9	2	5	248	0.00	30.117 
16:25	40.9	40.9	40.9	55	26.0	1	4	338	0.00	30.117 
16:30	40.9	40.9	40.9	55	26.0	1	4	270	0.00	30.114 
16:35	41.1	41.1	41.1	55	26.2	1	4	292	0.00	30.114 
16:40	41.6	41.6	41.6	55	26.6	1	4	270	0.00	30.114 
16:45	41.5	41.5	41.5	54	26.1	2	6	0	0.00	30.109 
16:50	41.3	41.3	41.3	53	25.5	3	7	270	0.00	30.109 
16:55	41.2	41.2	41.2	53	25.4	3	7	338	0.00	30.109 
17:00	41.2	41.2	41.2	54	25.8	2	6	338	0.00	30.119 
17:05	41.3	41.3	41.3	53	25.5	1	4	270	0.00	30.119 
17:10	41.2	41.2	41.2	54	25.8	2	4	270	0.00	30.119 
17:15	41.1	41.1	41.1	54	25.7	2	4	270	0.00	30.124 
17:20	40.8	40.8	40.8	54	25.5	2	5	315	0.00	30.124 
17:25	40.8	40.8	40.8	54	25.5	1	5	292	0.00	30.124 
17:30	40.6	40.6	40.6	54	25.3	3	9	338	0.00	30.131 
17:35	40.5	40.5	40.5	53	24.7	3	9	315	0.00	30.131 
17:40	40.6	40.6	40.6	54	25.3	2	5	315	0.00	30.131 
17:45	40.6	40.6	40.6	54	25.3	2	7	315	0.00	30.134 
17:50	40.6	40.6	40.6	54	25.3	2	6	315	0.00	30.134 
17:55	40.3	40.3	40.3	53	24.5	2	7	315	0.00	30.134 
18:00	40.2	40.2	40.2	54	24.9	2	5	315	0.00	30.140 
18:05	39.9	39.9	39.9	54	24.6	2	5	315	0.00	30.140 
18:10	39.9	39.9	39.9	54	24.6	1	4	315	0.00	30.140 
18:15	39.9	39.9	39.9	55	25.1	1	3	315	0.00	30.148 
18:20	39.9	39.9	39.9	55	25.1	1	3	270	0.00	30.148 
18:25	39.8	39.8	39.8	56	25.4	2	7	270	0.00	30.148 
18:30	39.6	39.6	39.6	57	25.6	2	5	315	0.00	30.149 
18:35	39.5	39.5	39.5	58	26.0	1	4	315	0.00	30.149 
18:40	39.5	39.5	39.5	58	26.0	1	7	248	0.00	30.149 
18:45	39.2	39.2	39.2	58	25.7	3	9	338	0.00	30.153 
18:50	39.2	39.2	39.2	59	26.1	2	5	292	0.00	30.153 
18:55	39.1	39.1	39.1	60	26.4	1	4	292	0.00	30.153 
19:00	38.9	38.9	38.9	60	26.2	1	4	292	0.00	30.157 
19:05	38.9	38.9	38.9	61	26.6	1	3	270	0.00	30.157 
19:10	38.8	38.8	38.8	62	26.9	0	3	315	0.00	30.157 
19:15	38.8	38.8	38.8	62	26.9	0	1	315	0.00	30.159 
19:20	38.6	38.6	38.6	62	26.7	1	3	292	0.00	30.159 
19:25	38.5	38.5	38.5	62	26.6	0	3	292	0.00	30.159 
19:30	38.5	38.5	38.5	62	26.6	1	4	292	0.00	30.164 
19:35	38.3	38.3	38.3	62	26.4	1	2	292	0.00	30.164 
19:40	38.3	38.3	38.3	62	26.4	1	4	292	0.00	30.164 
19:45	38.2	38.2	38.2	62	26.3	1	2	292	0.00	30.169 
19:50	38.2	38.2	38.2	62	26.3	0	2	270	0.00	30.169 
19:55	38.0	38.0	38.0	63	26.5	0	3	292	0.00	30.169 
20:00	38.0	38.0	38.0	63	26.5	0	1	292	0.00	30.170 
20:05	37.9	37.9	37.9	63	26.4	0	2	292	0.00	30.170 
20:10	37.8	37.8	37.8	63	26.4	0	3	292	0.00	30.170 
20:15	37.8	37.8	37.8	62	26.0	0	2	292	0.00	30.171 
20:20	37.6	37.6	37.6	62	25.8	0	2	292	0.00	30.171 
20:25	37.6	37.6	37.6	62	25.8	0	1	292	0.00	30.171 
20:30	37.5	37.5	37.5	63	26.1	0	1	292	0.00	30.172 
20:35	37.3	37.3	37.3	63	25.9	0	3	292	0.00	30.172 
20:40	37.2	37.2	37.2	64	26.2	1	3	338	0.00	30.172 
20:45	37.2	37.2	37.2	65	26.5	1	5	338	0.00	30.180 
20:50	37.0	37.0	37.0	65	26.3	1	4	270	0.00	30.180 
20:55	36.9	36.9	36.9	66	26.6	1	3	315	0.00	30.180 
21:00	36.8	36.8	36.8	67	26.9	1	3	292	0.00	30.185 
21:05	36.6	36.6	36.6	68	27.1	1	5	292	0.00	30.185 
21:10	36.5	36.5	36.5	69	27.3	0	3	292	0.00	30.185 
21:15	36.2	36.2	36.2	69	27.0	1	3	338	0.00	30.190 
21:20	36.0	36.0	36.0	70	27.2	1	5	338	0.00	30.190 
21:25	35.9	35.9	35.9	70	27.1	0	3	292	0.00	30.190 
21:30	35.8	35.8	35.8	71	27.3	0	3	292	0.00	30.196 
21:35	35.6	35.6	35.6	71	27.1	1	4	315	0.00	30.196 
21:40	35.5	35.5	35.5	71	27.0	1	4	315	0.00	30.196 
21:45	35.3	35.3	35.3	70	26.5	1	4	338	0.00	30.202 
21:50	35.2	35.2	35.2	70	26.4	1	3	270	0.00	30.202 
21:55	35.0	35.0	35.0	70	26.2	1	5	0	0.00	30.202 
22:00	34.9	34.9	34.9	70	26.1	2	7	315	0.00	30.200 
22:05	34.7	34.7	34.7	70	25.9	1	6	338	0.00	30.200 
22:10	34.6	34.6	34.6	70	25.8	2	6	338	0.00	30.200 
22:15	34.4	34.4	34.4	70	25.6	1	4	338	0.00	30.206 
22:20	34.3	34.3	34.3	71	25.9	1	4	315	0.00	30.206 
22:25	34.1	34.1	34.1	71	25.7	1	6	338	0.00	30.206 
22:30	34.0	34.0	34.0	72	25.9	1	5	292	0.00	30.210 
22:35	33.8	33.8	33.8	71	25.4	1	4	338	0.00	30.210 
22:40	33.5	33.5	33.5	71	25.1	2	6	338	0.00	30.210 
22:45	33.4	33.4	33.4	71	25.0	1	6	338	0.00	30.220 
22:50	33.2	33.2	33.2	71	24.8	1	9	0	0.00	30.220 
22:55	32.9	32.9	32.9	70	24.2	1	5	338	0.00	30.220 
23:00	32.9	32.9	32.9	69	23.9	2	8	270	0.00	30.221 
23:05	32.8	32.8	32.8	69	23.8	2	5	315	0.00	30.221 
23:10	32.7	32.7	32.7	69	23.7	1	4	292	0.00	30.221 
23:15	32.5	32.5	32.5	69	23.5	2	9	315	0.00	30.225 
23:20	32.4	32.4	32.4	69	23.4	2	5	338	0.00	30.225 
23:25	32.4	32.4	32.4	70	23.7	0	3	292	0.00	30.225 
23:30	32.2	32.2	32.2	70	23.5	1	5	292	0.00	30.235 
23:35	32.2	32.2	32.2	70	23.5	2	7	338	0.00	30.235 
23:40	32.1	32.1	32.1	70	23.4	1	3	292	0.00	30.235 
23:45	32.1	32.1	32.1	70	23.4	1	4	0	0.00	30.236 
23:50	31.9	31.9	31.9	71	23.6	0	2	315	0.00	30.236 
23:55	31.8	31.8	31.8	70	23.2	1	5	338	0.00	30.236 

CoCoRaHS
IN-AL-39
A2 Web Hosting
Creative Commons License
GoDaddy
search engine by freefind advanced

loaded 2018-11-15 15:39:56 • last modified 2010-11-18 10:43:29
Privacy PolicyDisclaimer
• wx.awcolley.com is powered by PmWiki v.2002016 •
• all content (unless otherwise noted) © 2018 A W Colley